sensor_id;sensor_type;location;lat;lon;timestamp;pressure;altitude;pressure_sealevel;temperature;humidity
35023;BME280;21214;44.912;8.204;2023-01-28T00:01:59;99720.03;;;0.76;100.00
35023;BME280;21214;44.912;8.204;2023-01-28T00:04:25;99730.31;;;0.77;100.00
35023;BME280;21214;44.912;8.204;2023-01-28T00:06:50;99723.38;;;0.78;100.00
35023;BME280;21214;44.912;8.204;2023-01-28T00:09:17;99722.22;;;0.66;100.00
35023;BME280;21214;44.912;8.204;2023-01-28T00:11:43;99729.94;;;0.68;100.00
35023;BME280;21214;44.912;8.204;2023-01-28T00:14:10;99726.44;;;0.69;100.00
35023;BME280;21214;44.912;8.204;2023-01-28T00:16:35;99723.38;;;0.61;100.00
35023;BME280;21214;44.912;8.204;2023-01-28T00:19:01;99720.63;;;0.47;100.00
35023;BME280;21214;44.912;8.204;2023-01-28T00:21:26;99719.53;;;0.33;100.00
35023;BME280;21214;44.912;8.204;2023-01-28T00:23:53;99719.00;;;0.27;100.00
35023;BME280;21214;44.912;8.204;2023-01-28T00:26:19;99714.41;;;0.15;100.00
35023;BME280;21214;44.912;8.204;2023-01-28T00:28:46;99720.84;;;0.06;100.00
35023;BME280;21214;44.912;8.204;2023-01-28T00:31:16;99716.44;;;0.08;100.00
35023;BME280;21214;44.912;8.204;2023-01-28T00:33:42;99725.00;;;0.10;100.00
35023;BME280;21214;44.912;8.204;2023-01-28T00:36:09;99718.41;;;0.03;100.00
35023;BME280;21214;44.912;8.204;2023-01-28T00:38:35;99717.81;;;-0.02;100.00
35023;BME280;21214;44.912;8.204;2023-01-28T00:41:11;99716.41;;;-0.09;100.00
35023;BME280;21214;44.912;8.204;2023-01-28T00:43:37;99725.53;;;-0.19;100.00
35023;BME280;21214;44.912;8.204;2023-01-28T00:46:03;99723.22;;;-0.25;100.00
35023;BME280;21214;44.912;8.204;2023-01-28T00:48:28;99718.31;;;-0.31;100.00
35023;BME280;21214;44.912;8.204;2023-01-28T00:50:54;99721.19;;;-0.37;100.00
35023;BME280;21214;44.912;8.204;2023-01-28T00:53:19;99726.94;;;-0.50;100.00
35023;BME280;21214;44.912;8.204;2023-01-28T00:55:45;99718.81;;;-0.61;100.00
35023;BME280;21214;44.912;8.204;2023-01-28T00:58:10;99719.63;;;-0.79;100.00
35023;BME280;21214;44.912;8.204;2023-01-28T01:00:36;99721.84;;;-0.90;100.00
35023;BME280;21214;44.912;8.204;2023-01-28T01:03:01;99720.09;;;-0.90;100.00
35023;BME280;21214;44.912;8.204;2023-01-28T01:05:26;99717.31;;;-0.85;100.00
35023;BME280;21214;44.912;8.204;2023-01-28T01:07:53;99724.81;;;-0.79;100.00
35023;BME280;21214;44.912;8.204;2023-01-28T01:10:19;99717.53;;;-0.71;100.00
35023;BME280;21214;44.912;8.204;2023-01-28T01:12:45;99720.78;;;-0.66;100.00
35023;BME280;21214;44.912;8.204;2023-01-28T01:15:10;99724.91;;;-0.62;100.00
35023;BME280;21214;44.912;8.204;2023-01-28T01:17:39;99725.69;;;-0.60;100.00
35023;BME280;21214;44.912;8.204;2023-01-28T01:20:06;99727.34;;;-0.59;100.00
35023;BME280;21214;44.912;8.204;2023-01-28T01:22:33;99726.31;;;-0.55;100.00
35023;BME280;21214;44.912;8.204;2023-01-28T01:25:00;99726.78;;;-0.47;100.00
35023;BME280;21214;44.912;8.204;2023-01-28T01:27:27;99736.88;;;-0.41;100.00
35023;BME280;21214;44.912;8.204;2023-01-28T01:29:53;99734.78;;;-0.32;100.00
35023;BME280;21214;44.912;8.204;2023-01-28T01:32:18;99729.31;;;-0.26;100.00
35023;BME280;21214;44.912;8.204;2023-01-28T01:34:44;99739.34;;;-0.19;100.00
35023;BME280;21214;44.912;8.204;2023-01-28T01:37:10;99738.28;;;-0.15;100.00
35023;BME280;21214;44.912;8.204;2023-01-28T01:39:36;99744.09;;;-0.10;100.00
35023;BME280;21214;44.912;8.204;2023-01-28T01:42:01;99750.91;;;-0.07;100.00
35023;BME280;21214;44.912;8.204;2023-01-28T01:47:11;99768.16;;;-0.06;100.00
35023;BME280;21214;44.912;8.204;2023-01-28T01:49:37;99765.34;;;-0.02;100.00
35023;BME280;21214;44.912;8.204;2023-01-28T01:52:05;99771.50;;;-0.04;100.00
35023;BME280;21214;44.912;8.204;2023-01-28T01:54:33;99774.16;;;-0.06;100.00
35023;BME280;21214;44.912;8.204;2023-01-28T01:57:00;99785.38;;;-0.05;100.00
35023;BME280;21214;44.912;8.204;2023-01-28T01:59:28;99788.91;;;-0.06;100.00
35023;BME280;21214;44.912;8.204;2023-01-28T02:01:54;99783.91;;;-0.11;100.00
35023;BME280;21214;44.912;8.204;2023-01-28T02:04:34;99784.00;;;-0.12;100.00
35023;BME280;21214;44.912;8.204;2023-01-28T02:07:01;99789.75;;;-0.24;100.00
35023;BME280;21214;44.912;8.204;2023-01-28T02:09:28;99786.38;;;-0.26;100.00
35023;BME280;21214;44.912;8.204;2023-01-28T02:12:00;99780.56;;;-0.31;100.00
35023;BME280;21214;44.912;8.204;2023-01-28T02:14:28;99769.94;;;-0.46;100.00
35023;BME280;21214;44.912;8.204;2023-01-28T02:16:55;99782.97;;;-0.47;100.00
35023;BME280;21214;44.912;8.204;2023-01-28T02:19:21;99775.34;;;-0.50;100.00
35023;BME280;21214;44.912;8.204;2023-01-28T02:29:30;99776.94;;;-0.66;100.00
35023;BME280;21214;44.912;8.204;2023-01-28T02:32:08;99771.53;;;-0.62;100.00
35023;BME280;21214;44.912;8.204;2023-01-28T02:34:40;99778.91;;;-0.71;100.00
35023;BME280;21214;44.912;8.204;2023-01-28T02:37:19;99778.31;;;-0.78;100.00
35023;BME280;21214;44.912;8.204;2023-01-28T02:39:53;99774.16;;;-0.82;100.00
35023;BME280;21214;44.912;8.204;2023-01-28T02:42:29;99771.34;;;-0.96;100.00
35023;BME280;21214;44.912;8.204;2023-01-28T02:44:56;99765.38;;;-0.98;100.00
35023;BME280;21214;44.912;8.204;2023-01-28T02:47:21;99773.06;;;-0.97;100.00
35023;BME280;21214;44.912;8.204;2023-01-28T02:50:13;99779.03;;;-0.95;100.00
35023;BME280;21214;44.912;8.204;2023-01-28T02:52:44;99777.28;;;-0.94;100.00
35023;BME280;21214;44.912;8.204;2023-01-28T03:05:50;99776.88;;;-0.65;100.00
35023;BME280;21214;44.912;8.204;2023-01-28T03:11:20;99771.28;;;-0.56;100.00
35023;BME280;21214;44.912;8.204;2023-01-28T03:14:06;99767.84;;;-0.56;100.00
35023;BME280;21214;44.912;8.204;2023-01-28T03:16:50;99774.72;;;-0.55;100.00
35023;BME280;21214;44.912;8.204;2023-01-28T03:19:37;99772.19;;;-0.57;100.00
35023;BME280;21214;44.912;8.204;2023-01-28T03:22:21;99778.91;;;-0.53;100.00
35023;BME280;21214;44.912;8.204;2023-01-28T03:25:07;99783.34;;;-0.55;100.00
35023;BME280;21214;44.912;8.204;2023-01-28T03:27:53;99778.47;;;-0.62;100.00
35023;BME280;21214;44.912;8.204;2023-01-28T03:30:57;99790.09;;;-0.71;100.00
35023;BME280;21214;44.912;8.204;2023-01-28T03:33:48;99789.91;;;-0.87;100.00
35023;BME280;21214;44.912;8.204;2023-01-28T03:36:35;99789.56;;;-0.99;100.00
35023;BME280;21214;44.912;8.204;2023-01-28T03:39:36;99785.69;;;-1.09;100.00
35023;BME280;21214;44.912;8.204;2023-01-28T03:42:07;99785.16;;;-1.17;100.00
35023;BME280;21214;44.912;8.204;2023-01-28T03:44:35;99789.31;;;-1.34;100.00
35023;BME280;21214;44.912;8.204;2023-01-28T03:47:18;99787.50;;;-1.32;100.00
35023;BME280;21214;44.912;8.204;2023-01-28T03:49:44;99782.06;;;-1.26;100.00
35023;BME280;21214;44.912;8.204;2023-01-28T03:52:18;99783.63;;;-1.21;100.00
35023;BME280;21214;44.912;8.204;2023-01-28T03:54:44;99797.84;;;-1.32;100.00
35023;BME280;21214;44.912;8.204;2023-01-28T03:57:14;99784.72;;;-1.47;100.00
35023;BME280;21214;44.912;8.204;2023-01-28T03:59:39;99785.34;;;-1.64;100.00
35023;BME280;21214;44.912;8.204;2023-01-28T04:02:05;99784.28;;;-1.80;100.00
35023;BME280;21214;44.912;8.204;2023-01-28T04:04:31;99789.34;;;-1.77;100.00
35023;BME280;21214;44.912;8.204;2023-01-28T04:06:57;99798.97;;;-1.81;100.00
35023;BME280;21214;44.912;8.204;2023-01-28T04:09:23;99793.91;;;-1.84;100.00
35023;BME280;21214;44.912;8.204;2023-01-28T04:11:55;99792.41;;;-1.89;100.00
35023;BME280;21214;44.912;8.204;2023-01-28T04:14:25;99801.03;;;-1.89;100.00
35023;BME280;21214;44.912;8.204;2023-01-28T04:17:10;99804.00;;;-1.99;100.00
35023;BME280;21214;44.912;8.204;2023-01-28T04:19:36;99805.59;;;-1.95;100.00
35023;BME280;21214;44.912;8.204;2023-01-28T04:22:04;99800.94;;;-1.87;100.00
35023;BME280;21214;44.912;8.204;2023-01-28T04:24:29;99806.91;;;-1.85;100.00
35023;BME280;21214;44.912;8.204;2023-01-28T04:26:55;99802.53;;;-1.83;100.00
35023;BME280;21214;44.912;8.204;2023-01-28T04:29:20;99808.34;;;-1.78;100.00
35023;BME280;21214;44.912;8.204;2023-01-28T04:31:47;99819.00;;;-1.64;100.00
35023;BME280;21214;44.912;8.204;2023-01-28T04:34:33;99814.97;;;-1.49;100.00
35023;BME280;21214;44.912;8.204;2023-01-28T04:37:28;99824.09;;;-1.41;100.00
35023;BME280;21214;44.912;8.204;2023-01-28T04:40:10;99823.84;;;-1.35;100.00
35023;BME280;21214;44.912;8.204;2023-01-28T04:42:56;99828.03;;;-1.31;100.00
35023;BME280;21214;44.912;8.204;2023-01-28T04:45:32;99832.16;;;-1.27;100.00
35023;BME280;21214;44.912;8.204;2023-01-28T04:48:17;99830.47;;;-1.28;100.00
35023;BME280;21214;44.912;8.204;2023-01-28T04:51:08;99830.72;;;-1.34;100.00
35023;BME280;21214;44.912;8.204;2023-01-28T04:53:41;99837.41;;;-1.50;100.00
35023;BME280;21214;44.912;8.204;2023-01-28T04:56:22;99840.00;;;-1.50;100.00
35023;BME280;21214;44.912;8.204;2023-01-28T04:58:47;99835.44;;;-1.43;100.00
35023;BME280;21214;44.912;8.204;2023-01-28T05:01:14;99846.00;;;-1.28;100.00
35023;BME280;21214;44.912;8.204;2023-01-28T05:03:39;99850.94;;;-1.21;100.00
35023;BME280;21214;44.912;8.204;2023-01-28T05:06:06;99857.66;;;-1.17;100.00
35023;BME280;21214;44.912;8.204;2023-01-28T05:08:43;99859.44;;;-1.18;100.00
35023;BME280;21214;44.912;8.204;2023-01-28T05:11:11;99855.88;;;-1.15;100.00
35023;BME280;21214;44.912;8.204;2023-01-28T05:13:37;99861.06;;;-1.15;100.00
35023;BME280;21214;44.912;8.204;2023-01-28T05:16:05;99869.97;;;-1.23;100.00
35023;BME280;21214;44.912;8.204;2023-01-28T05:18:31;99866.47;;;-1.21;100.00
35023;BME280;21214;44.912;8.204;2023-01-28T05:21:17;99875.28;;;-1.26;100.00
35023;BME280;21214;44.912;8.204;2023-01-28T05:23:49;99874.53;;;-1.29;100.00
35023;BME280;21214;44.912;8.204;2023-01-28T05:26:16;99870.53;;;-1.36;100.00
35023;BME280;21214;44.912;8.204;2023-01-28T05:28:42;99876.00;;;-1.44;100.00
35023;BME280;21214;44.912;8.204;2023-01-28T05:31:08;99869.03;;;-1.42;100.00
35023;BME280;21214;44.912;8.204;2023-01-28T05:33:34;99872.38;;;-1.40;100.00
35023;BME280;21214;44.912;8.204;2023-01-28T05:36:00;99880.81;;;-1.35;100.00
35023;BME280;21214;44.912;8.204;2023-01-28T05:38:26;99882.25;;;-1.28;100.00
35023;BME280;21214;44.912;8.204;2023-01-28T05:40:52;99889.13;;;-1.27;100.00
35023;BME280;21214;44.912;8.204;2023-01-28T05:43:17;99883.16;;;-1.29;100.00
35023;BME280;21214;44.912;8.204;2023-01-28T05:45:50;99887.44;;;-1.28;100.00
35023;BME280;21214;44.912;8.204;2023-01-28T05:48:27;99895.84;;;-1.23;100.00
35023;BME280;21214;44.912;8.204;2023-01-28T05:51:14;99899.00;;;-1.14;100.00
35023;BME280;21214;44.912;8.204;2023-01-28T05:53:43;99904.19;;;-1.14;100.00
35023;BME280;21214;44.912;8.204;2023-01-28T05:56:09;99900.44;;;-1.07;100.00
35023;BME280;21214;44.912;8.204;2023-01-28T05:58:37;99904.59;;;-1.03;100.00
35023;BME280;21214;44.912;8.204;2023-01-28T06:01:03;99912.25;;;-1.00;100.00
35023;BME280;21214;44.912;8.204;2023-01-28T06:03:37;99925.00;;;-0.96;100.00
35023;BME280;21214;44.912;8.204;2023-01-28T06:06:02;99918.84;;;-0.93;100.00
35023;BME280;21214;44.912;8.204;2023-01-28T06:08:29;99920.06;;;-1.02;100.00
35023;BME280;21214;44.912;8.204;2023-01-28T06:10:54;99929.09;;;-1.12;100.00
35023;BME280;21214;44.912;8.204;2023-01-28T06:13:22;99930.88;;;-1.12;100.00
35023;BME280;21214;44.912;8.204;2023-01-28T06:16:13;99932.19;;;-1.24;100.00
35023;BME280;21214;44.912;8.204;2023-01-28T06:18:56;99930.59;;;-1.28;100.00
35023;BME280;21214;44.912;8.204;2023-01-28T06:21:22;99926.63;;;-1.37;100.00
35023;BME280;21214;44.912;8.204;2023-01-28T06:23:48;99932.16;;;-1.46;100.00
35023;BME280;21214;44.912;8.204;2023-01-28T06:26:13;99931.63;;;-1.54;100.00
35023;BME280;21214;44.912;8.204;2023-01-28T06:28:42;99940.38;;;-1.58;100.00
35023;BME280;21214;44.912;8.204;2023-01-28T06:31:07;99941.13;;;-1.54;100.00
35023;BME280;21214;44.912;8.204;2023-01-28T06:33:33;99941.75;;;-1.48;100.00
35023;BME280;21214;44.912;8.204;2023-01-28T06:36:01;99938.00;;;-1.41;100.00
35023;BME280;21214;44.912;8.204;2023-01-28T06:38:26;99946.31;;;-1.33;100.00
35023;BME280;21214;44.912;8.204;2023-01-28T06:40:52;99945.13;;;-1.24;100.00
35023;BME280;21214;44.912;8.204;2023-01-28T06:43:20;99949.22;;;-1.18;100.00
35023;BME280;21214;44.912;8.204;2023-01-28T06:45:45;99951.88;;;-1.20;100.00
35023;BME280;21214;44.912;8.204;2023-01-28T06:48:11;99950.78;;;-1.14;100.00
35023;BME280;21214;44.912;8.204;2023-01-28T06:50:36;99954.81;;;-1.07;100.00
35023;BME280;21214;44.912;8.204;2023-01-28T06:53:02;99952.84;;;-1.01;100.00
35023;BME280;21214;44.912;8.204;2023-01-28T06:55:28;99953.56;;;-0.97;100.00
35023;BME280;21214;44.912;8.204;2023-01-28T06:57:54;99959.38;;;-0.92;100.00
35023;BME280;21214;44.912;8.204;2023-01-28T07:00:19;99961.88;;;-0.89;100.00
35023;BME280;21214;44.912;8.204;2023-01-28T07:02:45;99964.31;;;-0.86;100.00
35023;BME280;21214;44.912;8.204;2023-01-28T07:05:10;99956.44;;;-0.83;100.00
35023;BME280;21214;44.912;8.204;2023-01-28T07:07:35;99966.81;;;-0.83;100.00
35023;BME280;21214;44.912;8.204;2023-01-28T07:10:01;99970.25;;;-0.82;100.00
35023;BME280;21214;44.912;8.204;2023-01-28T07:12:26;99978.25;;;-0.89;100.00
35023;BME280;21214;44.912;8.204;2023-01-28T07:14:52;99976.81;;;-0.96;100.00
35023;BME280;21214;44.912;8.204;2023-01-28T07:17:19;99979.69;;;-1.03;100.00
35023;BME280;21214;44.912;8.204;2023-01-28T07:19:45;99979.94;;;-1.09;100.00
35023;BME280;21214;44.912;8.204;2023-01-28T07:22:10;99983.41;;;-1.10;100.00
35023;BME280;21214;44.912;8.204;2023-01-28T07:24:36;99990.19;;;-1.06;100.00
35023;BME280;21214;44.912;8.204;2023-01-28T07:27:01;99992.59;;;-1.02;100.00
35023;BME280;21214;44.912;8.204;2023-01-28T07:29:28;99983.31;;;-1.07;100.00
35023;BME280;21214;44.912;8.204;2023-01-28T07:31:54;99980.78;;;-1.09;100.00
35023;BME280;21214;44.912;8.204;2023-01-28T07:34:19;99978.13;;;-1.07;100.00
35023;BME280;21214;44.912;8.204;2023-01-28T07:36:45;99981.72;;;-1.11;100.00
35023;BME280;21214;44.912;8.204;2023-01-28T07:39:10;99982.66;;;-1.12;100.00
35023;BME280;21214;44.912;8.204;2023-01-28T07:41:35;99982.47;;;-1.08;100.00
35023;BME280;21214;44.912;8.204;2023-01-28T07:44:05;99995.25;;;-1.03;100.00
35023;BME280;21214;44.912;8.204;2023-01-28T07:46:30;100001.97;;;-0.99;100.00
35023;BME280;21214;44.912;8.204;2023-01-28T07:48:56;100004.50;;;-0.98;100.00
35023;BME280;21214;44.912;8.204;2023-01-28T07:51:21;100009.50;;;-0.93;100.00
35023;BME280;21214;44.912;8.204;2023-01-28T07:53:47;100010.16;;;-0.88;100.00
35023;BME280;21214;44.912;8.204;2023-01-28T07:56:12;100017.03;;;-0.87;100.00
35023;BME280;21214;44.912;8.204;2023-01-28T07:58:38;100020.19;;;-0.79;100.00
35023;BME280;21214;44.912;8.204;2023-01-28T08:01:03;100021.63;;;-0.72;100.00
35023;BME280;21214;44.912;8.204;2023-01-28T08:03:29;100022.50;;;-0.71;100.00
35023;BME280;21214;44.912;8.204;2023-01-28T08:05:55;100024.88;;;-0.67;100.00
35023;BME280;21214;44.912;8.204;2023-01-28T08:08:24;100028.97;;;-0.61;100.00
35023;BME280;21214;44.912;8.204;2023-01-28T08:10:50;100022.50;;;-0.71;100.00
35023;BME280;21214;44.912;8.204;2023-01-28T08:13:16;100033.81;;;-0.74;100.00
35023;BME280;21214;44.912;8.204;2023-01-28T08:15:42;100026.81;;;-0.72;100.00
35023;BME280;21214;44.912;8.204;2023-01-28T08:18:08;100040.31;;;-0.64;100.00
35023;BME280;21214;44.912;8.204;2023-01-28T08:20:37;100048.50;;;-0.53;100.00
35023;BME280;21214;44.912;8.204;2023-01-28T08:23:17;100051.53;;;-0.42;100.00
35023;BME280;21214;44.912;8.204;2023-01-28T08:25:44;100053.94;;;-0.37;100.00
35023;BME280;21214;44.912;8.204;2023-01-28T08:28:10;100056.31;;;-0.32;100.00
35023;BME280;21214;44.912;8.204;2023-01-28T08:30:36;100063.06;;;-0.28;100.00
35023;BME280;21214;44.912;8.204;2023-01-28T08:33:03;100066.69;;;-0.32;100.00
35023;BME280;21214;44.912;8.204;2023-01-28T08:35:29;100066.44;;;-0.26;100.00
35023;BME280;21214;44.912;8.204;2023-01-28T08:37:54;100068.13;;;-0.25;100.00
35023;BME280;21214;44.912;8.204;2023-01-28T08:40:20;100072.34;;;-0.23;100.00
35023;BME280;21214;44.912;8.204;2023-01-28T08:42:49;100069.69;;;-0.21;100.00
35023;BME280;21214;44.912;8.204;2023-01-28T08:45:15;100060.34;;;-0.25;100.00
35023;BME280;21214;44.912;8.204;2023-01-28T08:48:02;100062.94;;;-0.25;100.00
35023;BME280;21214;44.912;8.204;2023-01-28T08:50:28;100063.00;;;-0.27;100.00
35023;BME280;21214;44.912;8.204;2023-01-28T08:52:57;100056.97;;;-0.27;100.00
35023;BME280;21214;44.912;8.204;2023-01-28T08:55:23;100063.06;;;-0.28;100.00
35023;BME280;21214;44.912;8.204;2023-01-28T08:57:49;100059.88;;;-0.35;100.00
35023;BME280;21214;44.912;8.204;2023-01-28T09:00:14;100070.19;;;-0.33;100.00
35023;BME280;21214;44.912;8.204;2023-01-28T09:02:40;100063.31;;;-0.34;100.00
35023;BME280;21214;44.912;8.204;2023-01-28T09:05:05;100065.59;;;-0.27;100.00
35023;BME280;21214;44.912;8.204;2023-01-28T09:07:33;100067.09;;;-0.21;100.00
35023;BME280;21214;44.912;8.204;2023-01-28T09:09:59;100076.56;;;-0.20;100.00
35023;BME280;21214;44.912;8.204;2023-01-28T09:12:24;100084.91;;;-0.12;100.00
35023;BME280;21214;44.912;8.204;2023-01-28T09:14:49;100082.06;;;-0.06;100.00
35023;BME280;21214;44.912;8.204;2023-01-28T09:17:18;100089.69;;;-0.03;100.00
35023;BME280;21214;44.912;8.204;2023-01-28T09:19:44;100102.34;;;0.05;100.00
35023;BME280;21214;44.912;8.204;2023-01-28T09:22:09;100102.84;;;0.13;100.00
35023;BME280;21214;44.912;8.204;2023-01-28T09:24:35;100101.97;;;0.14;100.00
35023;BME280;21214;44.912;8.204;2023-01-28T09:27:00;100105.16;;;0.20;100.00
35023;BME280;21214;44.912;8.204;2023-01-28T09:29:25;100104.84;;;0.28;100.00
35023;BME280;21214;44.912;8.204;2023-01-28T09:31:51;100115.00;;;0.32;100.00
35023;BME280;21214;44.912;8.204;2023-01-28T09:34:16;100117.34;;;0.38;100.00
35023;BME280;21214;44.912;8.204;2023-01-28T09:36:42;100116.69;;;0.54;100.00
35023;BME280;21214;44.912;8.204;2023-01-28T09:39:07;100110.19;;;0.64;100.00
35023;BME280;21214;44.912;8.204;2023-01-28T09:41:55;100108.09;;;0.72;100.00
35023;BME280;21214;44.912;8.204;2023-01-28T09:46:48;100101.44;;;0.85;100.00
35023;BME280;21214;44.912;8.204;2023-01-28T09:49:16;100108.34;;;0.86;100.00
35023;BME280;21214;44.912;8.204;2023-01-28T09:51:46;100106.63;;;0.85;100.00
35023;BME280;21214;44.912;8.204;2023-01-28T09:56:59;100101.16;;;0.91;100.00
35023;BME280;21214;44.912;8.204;2023-01-28T09:59:30;100106.88;;;0.99;100.00
35023;BME280;21214;44.912;8.204;2023-01-28T10:17:49;100095.63;;;1.72;100.00
35023;BME280;21214;44.912;8.204;2023-01-28T10:25:19;100090.06;;;1.97;100.00
35023;BME280;21214;44.912;8.204;2023-01-28T10:27:45;100094.00;;;2.05;100.00
35023;BME280;21214;44.912;8.204;2023-01-28T10:32:54;100097.75;;;2.17;100.00
35023;BME280;21214;44.912;8.204;2023-01-28T10:35:21;100094.72;;;2.25;100.00
35023;BME280;21214;44.912;8.204;2023-01-28T10:37:46;100097.94;;;2.30;100.00
35023;BME280;21214;44.912;8.204;2023-01-28T10:40:13;100096.72;;;2.37;100.00
35023;BME280;21214;44.912;8.204;2023-01-28T10:42:39;100097.19;;;2.45;100.00
35023;BME280;21214;44.912;8.204;2023-01-28T10:45:07;100094.09;;;2.54;100.00
35023;BME280;21214;44.912;8.204;2023-01-28T10:48:22;100087.66;;;2.61;100.00
35023;BME280;21214;44.912;8.204;2023-01-28T10:50:28;100092.63;;;2.66;100.00
35023;BME280;21214;44.912;8.204;2023-01-28T10:52:55;100087.91;;;2.72;100.00
35023;BME280;21214;44.912;8.204;2023-01-28T10:55:21;100088.53;;;2.77;100.00
35023;BME280;21214;44.912;8.204;2023-01-28T10:57:46;100079.47;;;2.84;100.00
35023;BME280;21214;44.912;8.204;2023-01-28T11:00:22;100083.44;;;2.92;100.00
35023;BME280;21214;44.912;8.204;2023-01-28T11:02:48;100081.34;;;2.98;100.00
35023;BME280;21214;44.912;8.204;2023-01-28T11:05:15;100080.16;;;3.04;100.00
35023;BME280;21214;44.912;8.204;2023-01-28T11:07:41;100075.53;;;3.09;100.00
35023;BME280;21214;44.912;8.204;2023-01-28T11:12:53;100066.91;;;3.24;100.00
35023;BME280;21214;44.912;8.204;2023-01-28T11:15:19;100066.47;;;3.32;100.00
35023;BME280;21214;44.912;8.204;2023-01-28T11:17:45;100060.81;;;3.39;100.00
35023;BME280;21214;44.912;8.204;2023-01-28T11:20:21;100063.69;;;3.50;100.00
35023;BME280;21214;44.912;8.204;2023-01-28T11:22:46;100064.84;;;3.60;100.00
35023;BME280;21214;44.912;8.204;2023-01-28T11:25:34;100053.88;;;3.69;100.00
35023;BME280;21214;44.912;8.204;2023-01-28T11:28:00;100051.84;;;3.75;100.00
35023;BME280;21214;44.912;8.204;2023-01-28T11:30:33;100048.81;;;3.82;100.00
35023;BME280;21214;44.912;8.204;2023-01-28T11:35:37;100042.69;;;3.97;100.00
35023;BME280;21214;44.912;8.204;2023-01-28T11:38:03;100037.03;;;4.05;100.00
35023;BME280;21214;44.912;8.204;2023-01-28T11:40:48;100035.75;;;4.12;100.00
35023;BME280;21214;44.912;8.204;2023-01-28T11:43:13;100038.00;;;4.18;100.00
35023;BME280;21214;44.912;8.204;2023-01-28T11:45:40;100034.81;;;4.27;100.00
35023;BME280;21214;44.912;8.204;2023-01-28T11:50:51;100030.19;;;4.46;100.00
35023;BME280;21214;44.912;8.204;2023-01-28T11:58:40;100025.25;;;4.70;100.00
35023;BME280;21214;44.912;8.204;2023-01-28T12:01:13;100022.25;;;4.76;100.00
35023;BME280;21214;44.912;8.204;2023-01-28T12:19:39;99994.72;;;5.39;100.00
35023;BME280;21214;44.912;8.204;2023-01-28T12:24:58;99989.44;;;5.53;100.00
35023;BME280;21214;44.912;8.204;2023-01-28T12:27:43;99985.44;;;5.60;100.00
35023;BME280;21214;44.912;8.204;2023-01-28T12:33:07;99972.78;;;5.66;100.00
35023;BME280;21214;44.912;8.204;2023-01-28T12:40:42;99967.53;;;5.93;100.00
35023;BME280;21214;44.912;8.204;2023-01-28T12:46:03;99963.47;;;6.14;100.00
35023;BME280;21214;44.912;8.204;2023-01-28T12:48:39;99959.47;;;6.22;100.00
35023;BME280;21214;44.912;8.204;2023-01-28T12:51:09;99962.44;;;6.30;100.00
35023;BME280;21214;44.912;8.204;2023-01-28T12:53:37;99955.69;;;6.38;100.00
35023;BME280;21214;44.912;8.204;2023-01-28T12:56:07;99959.47;;;6.47;100.00
35023;BME280;21214;44.912;8.204;2023-01-28T12:58:39;99943.09;;;6.56;100.00
35023;BME280;21214;44.912;8.204;2023-01-28T13:01:08;99946.84;;;6.65;100.00
35023;BME280;21214;44.912;8.204;2023-01-28T13:06:01;99954.56;;;6.79;100.00
35023;BME280;21214;44.912;8.204;2023-01-28T13:08:29;99948.03;;;6.84;100.00
35023;BME280;21214;44.912;8.204;2023-01-28T13:10:55;99941.50;;;6.90;100.00
35023;BME280;21214;44.912;8.204;2023-01-28T13:13:34;99938.59;;;6.94;100.00
35023;BME280;21214;44.912;8.204;2023-01-28T13:16:01;99936.13;;;7.04;100.00
35023;BME280;21214;44.912;8.204;2023-01-28T13:18:33;99935.78;;;7.09;100.00
35023;BME280;21214;44.912;8.204;2023-01-28T13:20:59;99933.44;;;7.17;100.00
35023;BME280;21214;44.912;8.204;2023-01-28T13:25:51;99934.22;;;7.30;100.00
35023;BME280;21214;44.912;8.204;2023-01-28T13:28:24;99933.53;;;7.39;100.00
35023;BME280;21214;44.912;8.204;2023-01-28T13:30:50;99937.28;;;7.48;95.05
35023;BME280;21214;44.912;8.204;2023-01-28T13:33:28;99943.34;;;7.48;93.14
35023;BME280;21214;44.912;8.204;2023-01-28T13:35:53;99938.84;;;7.50;89.85
35023;BME280;21214;44.912;8.204;2023-01-28T13:38:19;99934.41;;;7.51;88.68
35023;BME280;21214;44.912;8.204;2023-01-28T13:40:58;99933.47;;;7.52;87.48
35023;BME280;21214;44.912;8.204;2023-01-28T13:43:35;99933.31;;;7.42;84.84
35023;BME280;21214;44.912;8.204;2023-01-28T13:46:06;99942.41;;;7.49;84.31
35023;BME280;21214;44.912;8.204;2023-01-28T13:48:48;99936.16;;;7.39;81.49
35023;BME280;21214;44.912;8.204;2023-01-28T13:51:23;99929.13;;;7.39;83.55
35023;BME280;21214;44.912;8.204;2023-01-28T13:53:57;99933.94;;;7.46;81.18
35023;BME280;21214;44.912;8.204;2023-01-28T13:56:27;99933.81;;;7.47;81.48
35023;BME280;21214;44.912;8.204;2023-01-28T14:07:12;99940.19;;;7.08;77.26
35023;BME280;21214;44.912;8.204;2023-01-28T14:09:48;99936.22;;;7.03;79.65
35023;BME280;21214;44.912;8.204;2023-01-28T14:12:22;99934.78;;;6.98;81.76
35023;BME280;21214;44.912;8.204;2023-01-28T14:14:57;99936.66;;;6.96;81.04
35023;BME280;21214;44.912;8.204;2023-01-28T14:17:34;99934.19;;;6.95;79.05
35023;BME280;21214;44.912;8.204;2023-01-28T14:20:13;99931.88;;;6.90;80.65
35023;BME280;21214;44.912;8.204;2023-01-28T14:22:40;99937.25;;;6.89;77.79
35023;BME280;21214;44.912;8.204;2023-01-28T14:25:10;99937.44;;;6.86;75.91
35023;BME280;21214;44.912;8.204;2023-01-28T14:27:37;99939.47;;;6.82;75.74
35023;BME280;21214;44.912;8.204;2023-01-28T14:32:34;99941.78;;;6.74;76.50
35023;BME280;21214;44.912;8.204;2023-01-28T14:35:04;99938.41;;;6.72;77.24
35023;BME280;21214;44.912;8.204;2023-01-28T14:37:31;99936.88;;;6.70;75.10
35023;BME280;21214;44.912;8.204;2023-01-28T14:39:58;99942.22;;;6.68;75.42
35023;BME280;21214;44.912;8.204;2023-01-28T14:50:24;99934.69;;;6.64;77.07
35023;BME280;21214;44.912;8.204;2023-01-28T14:55:28;99939.28;;;6.60;78.90
35023;BME280;21214;44.912;8.204;2023-01-28T14:57:57;99937.63;;;6.59;79.41
35023;BME280;21214;44.912;8.204;2023-01-28T15:02:49;99941.19;;;6.58;79.19
35023;BME280;21214;44.912;8.204;2023-01-28T15:05:17;99943.09;;;6.56;78.95
35023;BME280;21214;44.912;8.204;2023-01-28T15:07:44;99947.47;;;6.55;77.61
35023;BME280;21214;44.912;8.204;2023-01-28T15:10:14;99951.88;;;6.55;76.32